Time;durP1;ratioP1;P1;durP2;ratioP2;P2;SDS_P1;SDS_P2;PMS_P1;PMS_P2;Temp;Humidity;BMP_temperature;BMP_pressure;BME280_temperature;BME280_humidity;BME280_pressure;Samples;Min_cycle;Max_cycle;Signal;HPM_P1;HPM_P2
2022/03/11 00:00:28;;;;;;;14.27;5.33;;;;;;;-5.75;53.12;101734.27;125962;1099;120181;-81
2022/03/11 00:03:20;;;;;;;13.70;5.13;;;;;;;-5.80;52.65;101731.19;125958;1099;104204;-80
2022/03/11 00:05:53;;;;;;;14.03;5.20;;;;;;;-5.81;52.28;101734.46;126054;1099;104192;-81
2022/03/11 00:08:41;;;;;;;15.47;5.13;;;;;;;-5.81;52.68;101729.35;126879;1099;104338;-81
2022/03/11 00:11:19;;;;;;;10.50;3.92;;;;;;;-5.83;52.65;101725.70;125643;1099;104453;-80
2022/03/11 00:16:43;;;;;;;14.60;5.07;;;;;;;-5.87;52.31;101728.61;126850;1099;102746;-81
2022/03/11 00:19:16;;;;;;;9.50;4.70;;;;;;;-5.88;52.62;101719.10;126937;1099;102863;-81
2022/03/11 00:21:51;;;;;;;11.20;4.73;;;;;;;-5.88;52.18;101724.22;125797;1099;109412;-81
2022/03/11 00:24:36;;;;;;;14.77;4.60;;;;;;;-5.90;52.50;101718.02;125813;1099;104208;-81
2022/03/11 00:27:21;;;;;;;13.43;5.17;;;;;;;-5.92;52.75;101719.48;126433;1098;104157;-80
2022/03/11 00:30:10;;;;;;;13.67;4.53;;;;;;;-5.92;52.73;101724.59;125643;1099;104162;-81
2022/03/11 00:32:43;;;;;;;14.60;5.00;;;;;;;-5.95;52.41;101726.78;125171;1099;104689;-81
2022/03/11 00:35:15;;;;;;;13.07;4.93;;;;;;;-5.96;51.97;101724.95;125686;1099;104305;-81
2022/03/11 00:37:49;;;;;;;13.13;4.70;;;;;;;-5.97;52.03;101723.14;126053;1099;104239;-81
2022/03/11 00:40:35;;;;;;;;;;;;;;;-5.98;52.09;101721.34;126138;1099;104335;-81
2022/03/11 00:43:07;;;;;;;14.93;5.70;;;;;;;-6.01;52.65;101716.75;125232;1099;104345;-81
2022/03/11 00:45:39;;;;;;;17.00;5.37;;;;;;;-6.03;52.85;101718.22;125323;1102;104280;-82
2022/03/11 00:48:15;;;;;;;15.40;4.67;;;;;;;-6.03;52.07;101719.84;125280;1102;104222;-81
2022/03/11 00:50:52;;;;;;;16.60;5.20;;;;;;;-6.05;52.23;101716.20;125145;1102;104190;-81
2022/03/11 00:53:32;;;;;;;15.27;5.30;;;;;;;-6.07;53.00;101716.02;124965;1102;104229;-81
2022/03/11 00:56:31;;;;;;;13.93;4.73;;;;;;;-6.07;53.14;101710.91;125650;1102;104105;-81
2022/03/11 00:59:03;;;;;;;17.80;5.50;;;;;;;-6.07;52.68;101712.56;125707;1102;104441;-81
2022/03/11 01:01:35;;;;;;;15.13;5.10;;;;;;;-6.09;52.27;101703.77;125139;1102;104207;-81
2022/03/11 01:04:07;;;;;;;13.57;5.20;;;;;;;-6.12;52.15;101708.51;124889;1103;104235;-81
2022/03/11 01:06:49;;;;;;;14.77;5.07;;;;;;;-6.16;52.91;101708.14;125199;1102;104471;-81
2022/03/11 01:09:21;;;;;;;15.63;4.97;;;;;;;-6.18;52.35;101708.70;124346;1102;104229;-81
2022/03/11 01:12:15;;;;;;;13.90;5.00;;;;;;;-6.18;52.14;101703.59;125196;1102;104444;-81
2022/03/11 01:14:52;;;;;;;17.33;5.10;;;;;;;-6.19;53.15;101707.77;125543;1102;104224;-81
2022/03/11 01:17:24;;;;;;;16.62;4.78;;;;;;;-6.21;51.83;101711.78;125130;1102;104419;-81
2022/03/11 01:19:56;;;;;;;11.80;4.50;;;;;;;-6.23;51.90;101705.59;125241;1102;102396;-81
2022/03/11 01:22:31;;;;;;;13.13;4.80;;;;;;;-6.25;51.88;101709.58;125012;1102;104319;-81
2022/03/11 01:25:04;;;;;;;10.50;4.13;;;;;;;-6.23;51.83;101714.87;125025;1099;104297;-81
2022/03/11 01:27:36;;;;;;;13.67;4.90;;;;;;;-6.26;52.46;101714.50;125976;1099;104149;-81
2022/03/11 01:30:13;;;;;;;15.60;4.43;;;;;;;-6.28;51.65;101714.31;126167;1099;104278;-82
2022/03/11 01:32:45;;;;;;;12.90;4.53;;;;;;;-6.29;51.63;101709.95;125778;1099;104392;-82
2022/03/11 01:35:18;;;;;;;15.30;4.53;;;;;;;-6.30;52.41;101708.11;125839;1099;104216;-82
2022/03/11 01:37:49;;;;;;;15.27;4.80;;;;;;;-6.32;51.42;101709.58;126335;1099;102015;-82
2022/03/11 01:40:28;;;;;;;13.70;4.60;;;;;;;-6.31;52.31;101708.83;125640;1099;104232;-81
2022/03/11 01:43:03;;;;;;;14.33;4.60;;;;;;;-6.30;51.52;101697.89;125356;1102;104367;-81
2022/03/11 01:45:35;;;;;;;12.27;4.43;;;;;;;-6.32;52.03;101713.03;124747;1102;104268;-81
2022/03/11 01:48:18;;;;;;;12.27;4.63;;;;;;;-6.33;51.72;101703.56;125212;1099;104165;-81
2022/03/11 01:50:52;;;;;;;10.90;4.10;;;;;;;-6.32;51.95;101702.81;125524;1102;102788;-80
2022/03/11 01:53:27;;;;;;;14.73;4.67;;;;;;;-6.32;52.35;101705.38;125059;1099;104871;-81
2022/03/11 01:55:59;;;;;;;14.30;4.70;;;;;;;-6.31;51.59;101703.72;125097;1099;104191;-81
2022/03/11 01:58:32;;;;;;;14.10;4.60;;;;;;;-6.30;51.47;101707.21;124990;1102;104338;-81
2022/03/11 02:01:09;;;;;;;15.53;4.63;;;;;;;-6.31;51.23;101711.38;124936;1099;104389;-81
2022/03/11 02:03:41;;;;;;;14.37;4.47;;;;;;;-6.31;52.07;101701.16;124747;1102;104383;-81
2022/03/11 02:06:16;;;;;;;15.23;4.53;;;;;;;-6.29;51.51;101693.69;124936;1099;101898;-81
2022/03/11 02:08:48;;;;;;;14.53;4.40;;;;;;;-6.30;51.42;101696.99;125532;1098;104310;-81
2022/03/11 02:11:19;;;;;;;14.30;4.20;;;;;;;-6.29;51.85;101698.80;125614;1099;104150;-81
2022/03/11 02:13:56;;;;;;;14.70;5.13;;;;;;;-6.28;52.36;101696.43;125654;1098;103247;-81
2022/03/11 02:16:30;;;;;;;13.97;4.70;;;;;;;-6.26;51.40;101695.00;125702;1098;104277;-81
2022/03/11 02:19:06;;;;;;;13.05;3.87;;;;;;;-6.26;51.96;101705.22;125814;1099;104169;-81
2022/03/11 02:22:07;;;;;;;11.17;4.37;;;;;;;-6.23;51.19;101704.65;124999;1102;104238;-81
2022/03/11 02:24:42;;;;;;;14.53;4.57;;;;;;;-6.21;51.77;101713.44;125424;1099;103243;-81
2022/03/11 02:27:18;;;;;;;12.23;4.33;;;;;;;-6.19;51.35;101694.98;125485;1099;102047;-81
2022/03/11 02:29:51;;;;;;;16.60;5.07;;;;;;;-6.16;51.74;101699.57;125792;1099;104258;-81
2022/03/11 02:32:25;;;;;;;14.57;4.87;;;;;;;-6.15;51.34;101703.97;125617;1099;102883;-81
2022/03/11 02:34:58;;;;;;;13.83;4.77;;;;;;;-6.15;51.12;101704.87;125941;1099;104153;-81
2022/03/11 02:37:30;;;;;;;13.10;4.83;;;;;;;-6.13;50.91;101714.38;125896;1099;103101;-81
2022/03/11 02:40:05;;;;;;;13.53;4.80;;;;;;;-6.13;51.41;101697.38;125673;1099;104127;-81
2022/03/11 02:42:37;;;;;;;12.60;5.03;;;;;;;-6.10;51.25;101713.09;125285;1099;104222;-81
2022/03/11 02:45:13;;;;;;;14.50;4.45;;;;;;;-6.13;50.62;101702.50;125729;1099;104742;-81
2022/03/11 02:47:50;;;;;;;18.07;5.37;;;;;;;-6.11;50.79;101695.92;125871;1099;104249;-81
2022/03/11 02:50:24;;;;;;;18.03;4.77;;;;;;;-6.11;50.49;101697.57;125774;1099;104297;-81
2022/03/11 02:53:08;;;;;;;18.83;5.27;;;;;;;-6.10;50.90;101687.53;126479;1099;104243;-81
2022/03/11 02:55:40;;;;;;;15.57;4.80;;;;;;;-6.09;50.55;101694.48;125604;1100;103033;-79
2022/03/11 02:58:12;;;;;;;14.07;4.80;;;;;;;-6.06;50.73;101686.25;126085;1099;104239;-80
2022/03/11 03:01:01;;;;;;;23.77;5.57;;;;;;;-6.04;51.01;101693.39;125926;1099;104342;-80
2022/03/11 03:03:32;;;;;;;13.27;4.33;;;;;;;-6.01;51.37;101692.85;126038;1099;102866;-79
2022/03/11 03:06:21;;;;;;;14.23;4.30;;;;;;;-6.00;50.75;101693.04;125938;1099;108965;-80
2022/03/11 03:08:52;;;;;;;13.73;4.50;;;;;;;-6.00;50.17;101681.88;125835;1099;104194;-80
2022/03/11 03:11:24;;;;;;;12.87;4.60;;;;;;;-5.98;50.85;101689.02;125808;1099;104184;-80
2022/03/11 03:13:56;;;;;;;11.70;4.13;;;;;;;-5.93;50.53;101681.86;126585;1098;102042;-80
2022/03/11 03:16:27;;;;;;;13.93;4.30;;;;;;;-5.90;50.53;101686.44;125423;1099;104296;-80
2022/03/11 03:19:00;;;;;;;11.60;4.47;;;;;;;-5.91;50.48;101670.17;125387;1099;104361;-80
2022/03/11 03:21:35;;;;;;;8.67;4.00;;;;;;;-5.91;51.13;101667.61;125590;1099;104233;-80
2022/03/11 03:24:07;;;;;;;14.20;4.63;;;;;;;-5.89;50.83;101671.28;126317;1099;104284;-80
2022/03/11 03:26:44;;;;;;;11.50;4.37;;;;;;;-5.86;50.89;101680.94;126245;1099;104158;-80
2022/03/11 03:29:15;;;;;;;12.10;4.23;;;;;;;-5.87;50.50;101674.03;124852;1099;104219;-81
2022/03/11 03:31:49;;;;;;;11.67;4.20;;;;;;;-5.85;51.34;101676.02;125625;1099;104144;-81
2022/03/11 03:34:21;;;;;;;13.23;4.00;;;;;;;-5.86;51.25;101679.33;125463;1099;104258;-81
2022/03/11 03:36:52;;;;;;;14.30;4.37;;;;;;;-5.87;50.70;101681.70;125761;1099;110549;-81
2022/03/11 03:39:25;;;;;;;15.60;4.57;;;;;;;-5.88;50.70;101688.42;126283;1099;104248;-81
2022/03/11 03:42:01;;;;;;;9.93;3.90;;;;;;;-5.88;50.46;101685.88;125469;1099;104235;-81
2022/03/11 03:44:33;;;;;;;12.40;4.33;;;;;;;-5.88;50.87;101679.86;125765;1099;104222;-82
2022/03/11 03:47:06;;;;;;;15.37;4.60;;;;;;;-5.87;50.85;101694.48;125609;1098;104245;-81
2022/03/11 03:49:42;;;;;;;11.60;3.90;;;;;;;-5.88;50.83;101684.97;125566;1099;104198;-81
2022/03/11 03:52:16;;;;;;;10.47;3.50;;;;;;;-5.90;49.83;101686.44;125349;1099;104232;-81
2022/03/11 03:55:12;;;;;;;40.93;8.57;;;;;;;-5.88;50.46;101692.64;126425;1099;104266;-82
2022/03/11 03:57:47;;;;;;;14.80;5.17;;;;;;;-5.88;50.42;101688.42;125233;1099;108350;-81
2022/03/11 04:00:22;;;;;;;15.67;4.23;;;;;;;-5.86;50.45;101676.77;124929;1098;104438;-81
2022/03/11 04:02:54;;;;;;;12.17;4.40;;;;;;;-5.86;50.86;101673.27;125491;1099;104866;-81
2022/03/11 04:05:25;;;;;;;11.97;4.23;;;;;;;-5.88;51.19;101678.20;125080;1099;104441;-81
2022/03/11 04:07:58;;;;;;;9.97;4.27;;;;;;;-5.90;50.51;101666.89;124691;1098;118164;-81
2022/03/11 04:10:30;;;;;;;11.97;4.37;;;;;;;-5.88;50.49;101670.53;124897;1098;104441;-81
2022/03/11 04:13:02;;;;;;;11.97;4.40;;;;;;;-5.88;50.36;101667.98;125165;1099;104174;-80
2022/03/11 04:15:44;;;;;;;15.90;4.87;;;;;;;-5.90;50.60;101663.44;125136;1099;104217;-81
2022/03/11 04:18:17;;;;;;;15.00;4.43;;;;;;;-5.87;50.46;101672.38;125085;1099;104365;-81
2022/03/11 04:21:09;;;;;;;13.27;4.37;;;;;;;-5.84;51.13;101666.72;125733;1099;104335;-81
2022/03/11 04:23:42;;;;;;;11.70;4.17;;;;;;;-5.78;50.81;101667.42;125476;1102;104166;-80
2022/03/11 04:26:14;;;;;;;13.67;5.13;;;;;;;-5.78;51.11;101676.03;125094;1102;104290;-81
2022/03/11 04:28:47;;;;;;;13.17;4.53;;;;;;;-5.75;51.08;101682.23;125519;1102;103576;-81
2022/03/11 04:31:18;;;;;;;14.63;4.57;;;;;;;-5.77;50.70;101672.72;125092;1102;104348;-81
2022/03/11 04:33:50;;;;;;;13.67;4.20;;;;;;;-5.77;51.22;101679.48;125155;1103;104354;-81
2022/03/11 04:36:21;;;;;;;15.60;4.70;;;;;;;-5.79;50.22;101676.75;124960;1102;104050;-81
2022/03/11 04:38:54;;;;;;;14.40;4.97;;;;;;;-5.81;50.19;101669.64;125007;1099;104392;-81
2022/03/11 04:41:28;;;;;;;16.03;5.00;;;;;;;-5.84;50.17;101671.84;125017;1102;104348;-80
2022/03/11 04:43:59;;;;;;;13.93;4.87;;;;;;;-5.84;50.29;101672.73;124920;1099;104335;-81
2022/03/11 04:46:39;;;;;;;14.43;4.73;;;;;;;-5.84;49.95;101676.95;125047;1099;104204;-81
2022/03/11 04:49:11;;;;;;;13.27;4.57;;;;;;;-5.84;50.84;101682.06;125119;1102;104341;-81
2022/03/11 04:51:43;;;;;;;13.33;4.80;;;;;;;-5.85;50.59;101673.45;125083;1100;104184;-81
2022/03/11 04:54:15;;;;;;;14.27;4.77;;;;;;;-5.86;49.82;101681.88;124069;1102;104433;-82
2022/03/11 04:56:46;;;;;;;13.00;4.35;;;;;;;-5.85;50.10;101686.23;124013;1102;102119;-80
2022/03/11 04:59:18;;;;;;;16.23;4.93;;;;;;;-5.82;50.19;101665.25;123925;1099;104383;-79
2022/03/11 05:01:49;;;;;;;11.13;4.20;;;;;;;-5.81;49.60;101677.31;124012;1099;104409;-79
2022/03/11 05:04:21;;;;;;;10.50;4.43;;;;;;;-5.79;50.54;101674.19;124529;1098;104335;-79
2022/03/11 05:06:54;;;;;;;13.07;4.27;;;;;;;-5.79;50.23;101675.84;124244;1099;104245;-80
2022/03/11 05:09:26;;;;;;;11.20;4.08;;;;;;;-5.77;49.96;101684.59;124122;1099;104338;-80
2022/03/11 05:11:57;;;;;;;13.43;4.53;;;;;;;-5.76;50.17;101676.21;124531;1099;104415;-80
2022/03/11 05:14:28;;;;;;;12.63;4.77;;;;;;;-5.72;50.40;101687.70;124696;1099;104396;-80
2022/03/11 05:17:00;;;;;;;11.60;3.60;;;;;;;-5.70;49.97;101686.23;124765;1099;104232;-80
2022/03/11 05:19:33;;;;;;;13.33;4.30;;;;;;;-5.68;50.41;101685.70;124252;1099;111101;-81
2022/03/11 05:22:05;;;;;;;12.40;4.83;;;;;;;-5.66;50.29;101693.55;124226;1099;104245;-80
2022/03/11 05:24:37;;;;;;;10.20;3.87;;;;;;;-5.67;50.19;101690.09;124332;1102;104309;-81
2022/03/11 05:27:09;;;;;;;13.00;4.53;;;;;;;-5.67;49.79;101694.27;124238;1099;104523;-80
2022/03/11 05:29:41;;;;;;;12.23;4.20;;;;;;;-5.65;50.03;101686.06;124277;1101;104300;-81
2022/03/11 05:32:15;;;;;;;13.67;4.00;;;;;;;-5.61;49.53;101689.88;124206;1101;104380;-80
2022/03/11 05:34:45;;;;;;;;;;;;;;;-5.56;49.80;101690.43;124475;1102;104242;-80
2022/03/11 05:37:17;;;;;;;13.90;4.60;;;;;;;-5.53;49.55;101709.64;124628;1102;104515;-81
2022/03/11 05:39:48;;;;;;;11.53;4.10;;;;;;;-5.49;49.67;101699.02;125129;1099;108098;-81
2022/03/11 05:42:20;;;;;;;14.60;3.90;;;;;;;-5.42;49.95;101691.34;124577;1099;104239;-81
2022/03/11 05:44:54;;;;;;;12.53;4.17;;;;;;;-5.34;49.89;101688.79;124639;1099;104348;-81
2022/03/11 05:47:25;;;;;;;9.23;3.40;;;;;;;-5.27;48.83;101710.16;124871;1099;104232;-80
2022/03/11 05:49:57;;;;;;;13.57;4.50;;;;;;;-5.21;49.40;101686.91;125025;1099;104351;-81
2022/03/11 05:52:29;;;;;;;13.37;4.10;;;;;;;-5.18;48.57;101684.72;125057;1099;104258;-80
2022/03/11 05:55:01;;;;;;;13.07;4.27;;;;;;;-5.11;49.06;101687.27;125271;1099;104233;-81
2022/03/11 05:57:35;;;;;;;12.70;4.30;;;;;;;-5.04;48.97;101688.89;125026;1098;104159;-81
2022/03/11 06:00:09;;;;;;;16.13;4.47;;;;;;;-4.96;48.86;101693.24;125012;1099;104229;-81
2022/03/11 06:02:46;;;;;;;8.57;3.17;;;;;;;-4.87;48.03;101690.84;125043;1099;104195;-80
2022/03/11 06:05:18;;;;;;;14.53;4.50;;;;;;;-4.76;47.83;101697.22;125234;1099;104204;-80
2022/03/11 06:07:50;;;;;;;9.63;3.67;;;;;;;-4.68;49.11;101687.86;124914;1099;104253;-80
2022/03/11 06:10:21;;;;;;;9.23;3.30;;;;;;;-4.67;47.73;101693.16;124617;1099;104245;-79
2022/03/11 06:12:55;;;;;;;13.23;4.50;;;;;;;-4.61;47.63;101691.30;125466;1099;104638;-80
2022/03/11 06:15:27;;;;;;;12.18;4.90;;;;;;;-4.53;47.73;101681.94;124568;1099;104242;-79
2022/03/11 06:18:01;;;;;;;14.00;4.90;;;;;;;-4.49;47.97;101688.31;124879;1098;104246;-78
2022/03/11 06:20:35;;;;;;;15.33;4.83;;;;;;;-4.56;46.80;101684.14;124708;1099;104166;-79
2022/03/11 06:23:07;;;;;;;13.73;5.10;;;;;;;-4.46;47.73;101691.22;124920;1099;104539;-81
2022/03/11 06:25:46;;;;;;;12.90;4.30;;;;;;;-4.41;47.74;101682.40;126091;1099;102445;-80
2022/03/11 06:28:23;;;;;;;15.90;4.43;;;;;;;-4.50;47.18;101687.41;125119;1099;102913;-81
2022/03/11 06:31:02;;;;;;;8.00;3.03;;;;;;;-4.62;46.79;101681.78;125251;1099;107674;-80
2022/03/11 06:33:49;;;;;;;15.23;4.77;;;;;;;-4.58;47.84;101680.47;125640;1099;104306;-81
2022/03/11 06:36:22;;;;;;;12.50;3.53;;;;;;;-4.72;47.46;101681.45;125909;1099;104189;-79
2022/03/11 06:38:55;;;;;;;17.87;4.50;;;;;;;-4.76;47.87;101677.63;125405;1099;101961;-78
2022/03/11 06:41:34;;;;;;;16.00;4.77;;;;;;;-4.73;48.10;101680.55;125454;1099;104398;-81
2022/03/11 06:44:11;;;;;;;8.80;4.27;;;;;;;-4.70;48.36;101680.90;125534;1099;104337;-79
2022/03/11 06:47:04;;;;;;;13.70;3.90;;;;;;;-4.72;48.02;101676.33;125037;1099;104210;-79
2022/03/11 06:50:09;;;;;;;11.65;3.80;;;;;;;-4.71;48.43;101689.30;125184;1099;104178;-81
2022/03/11 06:53:06;;;;;;;9.10;3.90;;;;;;;-4.74;48.58;101682.92;125381;1099;104156;-80
2022/03/11 06:55:52;;;;;;;8.20;3.00;;;;;;;-4.80;48.36;101689.91;125336;1099;104689;-79
2022/03/11 06:58:43;;;;;;;9.17;3.57;;;;;;;-4.86;48.16;101697.81;125171;1099;104434;-80
2022/03/11 07:04:34;;;;;;;9.87;4.03;;;;;;;-4.76;50.03;101681.85;125208;1099;104341;-80
2022/03/11 07:07:11;;;;;;;15.60;4.77;;;;;;;-4.68;50.41;101693.88;124353;1102;104252;-83
2022/03/11 07:09:44;;;;;;;12.43;4.87;;;;;;;-4.67;51.15;101693.16;124809;1099;104239;-80
2022/03/11 07:12:16;;;;;;;13.30;4.50;;;;;;;-4.78;52.20;101697.04;124541;1102;104360;-80
2022/03/11 07:14:48;;;;;;;10.07;4.17;;;;;;;-4.90;52.89;101693.05;124353;1100;104451;-82
2022/03/11 07:17:21;;;;;;;15.10;4.33;;;;;;;-4.95;53.60;101701.86;124124;1102;104398;-81
2022/03/11 07:19:57;;;;;;;15.60;4.70;;;;;;;-4.96;53.84;101706.05;125109;1102;104364;-79
2022/03/11 07:22:31;;;;;;;14.83;4.83;;;;;;;-4.98;54.29;101696.38;124598;1099;104456;-79
2022/03/11 07:25:17;;;;;;;15.80;4.55;;;;;;;-4.99;55.10;101694.55;123750;1099;104402;-78
2022/03/11 07:27:52;;;;;;;10.83;4.77;;;;;;;-5.00;54.81;101691.08;123962;1099;104473;-79
2022/03/11 07:30:30;;;;;;;15.43;4.90;;;;;;;-5.07;56.36;101704.79;124008;1099;104248;-79
2022/03/11 07:33:11;;;;;;;18.23;6.20;;;;;;;-5.04;56.07;101691.45;124472;1102;104172;-81
2022/03/11 07:35:45;;;;;;;12.63;4.60;;;;;;;-4.98;57.58;101686.14;124909;1099;103130;-80
2022/03/11 07:38:24;;;;;;;12.80;5.30;;;;;;;-4.98;58.13;101698.94;123850;1099;104325;-78
2022/03/11 07:41:25;;;;;;;11.43;3.97;;;;;;;-4.96;57.83;101694.91;124580;1099;104220;-80
2022/03/11 07:44:18;;;;;;;17.27;5.73;;;;;;;-4.95;57.97;101691.63;125793;1099;104293;-81
2022/03/11 07:47:01;;;;;;;11.43;4.07;;;;;;;-5.00;58.54;101695.27;125767;1099;104249;-82
2022/03/11 07:49:51;;;;;;;15.43;5.10;;;;;;;-5.08;59.26;101690.19;125192;1099;104347;-79
2022/03/11 07:53:16;;;;;;;10.57;4.10;;;;;;;-5.08;58.90;101705.55;124324;1099;109659;-80
2022/03/11 07:56:00;;;;;;;11.17;3.90;;;;;;;-5.13;58.34;101701.52;125139;1099;102977;-82
2022/03/11 08:02:04;;;;;;;14.37;4.53;;;;;;;-5.02;59.43;101712.11;124745;1099;104351;-79
2022/03/11 08:04:49;;;;;;;;;;;;;;;;;;;;;
2022/03/11 08:07:29;;;;;;;13.83;4.57;;;;;;;-5.03;60.54;101700.03;126020;1099;104293;-80
2022/03/11 08:16:08;;;;;;;12.13;4.57;;;;;;;-4.82;60.09;101704.19;124897;1102;104380;-80
2022/03/11 08:19:04;;;;;;;;;;;;;;;;;;;;;
2022/03/11 08:21:52;;;;;;;12.37;3.63;;;;;;;-4.87;61.69;101691.75;125137;1099;104239;-78
2022/03/11 08:24:59;;;;;;;15.37;4.90;;;;;;;-4.84;62.30;101700.55;124922;1099;104421;-82
2022/03/11 08:27:56;;;;;;;15.30;4.60;;;;;;;-4.91;63.97;101698.90;124877;1100;104367;-80
2022/03/11 08:30:41;;;;;;;12.03;4.47;;;;;;;-4.76;62.97;101682.75;125073;1102;104350;-80
2022/03/11 08:33:23;;;;;;;12.13;5.07;;;;;;;-4.67;63.84;101687.09;124912;1102;104488;-83
2022/03/11 08:36:14;;;;;;;13.33;4.63;;;;;;;-4.64;63.96;101697.70;124861;1102;104226;-80
2022/03/11 08:38:49;;;;;;;10.73;4.47;;;;;;;-4.52;62.40;101682.11;124789;1099;104296;-81
2022/03/11 08:41:42;;;;;;;14.80;5.50;;;;;;;-4.49;63.31;101689.21;124978;1102;104486;-82
2022/03/11 08:44:22;;;;;;;12.07;5.00;;;;;;;-4.56;63.76;101689.27;124923;1099;104240;-80
2022/03/11 08:46:56;;;;;;;11.37;4.20;;;;;;;-4.64;63.86;101692.58;124608;1102;104421;-81
2022/03/11 08:49:36;;;;;;;13.37;4.67;;;;;;;-4.68;64.29;101692.98;125475;1099;104232;-80
2022/03/11 08:52:12;;;;;;;14.33;4.80;;;;;;;-4.73;66.43;101695.02;125067;1099;104219;-81
2022/03/11 08:54:50;;;;;;;11.73;4.97;;;;;;;-4.53;65.45;101694.74;125542;1099;104187;-80
2022/03/11 08:57:52;;;;;;;10.93;4.47;;;;;;;-4.37;64.37;101693.17;124948;1099;104236;-81
2022/03/11 09:00:36;;;;;;;12.67;5.27;;;;;;;-4.26;63.95;101686.71;126047;1099;104268;-80
2022/03/11 09:03:29;;;;;;;11.97;4.93;;;;;;;-4.05;63.24;101684.73;126008;1099;104149;-80
2022/03/11 09:06:38;;;;;;;15.17;5.87;;;;;;;-3.91;63.67;101681.16;126206;1099;102055;-84
2022/03/11 09:10:21;;;;;;;;;;;;;;;;;;;;;
2022/03/11 09:18:12;;;;;;;20.53;7.90;;;;;;;-4.05;62.59;101680.55;125132;1105;104233;-82
2022/03/11 09:20:48;;;;;;;24.77;8.13;;;;;;;-4.00;63.75;101684.53;124390;1105;104207;-82
2022/03/11 09:23:36;;;;;;;19.97;6.20;;;;;;;-3.90;66.62;101677.87;124370;1105;104511;-80
2022/03/11 09:26:24;;;;;;;12.13;5.03;;;;;;;-3.83;65.61;101681.30;124589;1105;104304;-80
2022/03/11 09:29:23;;;;;;;13.60;5.43;;;;;;;-3.78;66.91;101681.81;124058;1106;104245;-79
2022/03/11 09:32:22;;;;;;;14.20;5.63;;;;;;;-3.56;64.33;101679.97;124303;1105;104409;-81
2022/03/11 09:38:43;;;;;;;13.87;5.53;;;;;;;-3.39;62.74;101680.93;124938;1105;104428;-78
2022/03/11 09:41:38;;;;;;;14.60;5.20;;;;;;;-3.31;63.65;101674.97;124881;1105;104430;-81
2022/03/11 09:44:40;;;;;;;16.07;6.33;;;;;;;-3.31;63.72;101675.87;125095;1105;104441;-79
2022/03/11 09:47:45;;;;;;;;;;;;;;;;;;;;;
2022/03/11 09:54:19;;;;;;;16.23;5.60;;;;;;;-2.92;62.90;101673.24;125060;1105;102315;-80
2022/03/11 10:00:58;;;;;;;;;;;;;;;;;;;;;
2022/03/11 10:04:13;;;;;;;15.10;5.80;;;;;;;-2.76;62.87;101670.69;123757;1109;105648;-78
2022/03/11 10:07:26;;;;;;;;;;;;;;;;;;;;;
2022/03/11 10:10:19;;;;;;;15.40;5.90;;;;;;;-2.89;62.71;101671.01;123391;1112;104607;-78
2022/03/11 10:13:37;;;;;;;14.37;5.57;;;;;;;-3.27;63.55;101672.01;123058;1109;104284;-79
2022/03/11 10:16:44;;;;;;;16.33;5.93;;;;;;;-3.19;62.10;101673.75;124786;1109;104325;-80
2022/03/11 10:19:34;;;;;;;14.70;5.80;;;;;;;-3.09;63.20;101667.95;124017;1109;104175;-79
2022/03/11 10:22:14;;;;;;;18.33;7.20;;;;;;;-3.01;62.13;101656.84;124005;1106;104670;-81
2022/03/11 10:24:52;;;;;;;16.77;5.77;;;;;;;-2.89;63.17;101662.40;124442;1102;105821;-80
2022/03/11 10:27:57;;;;;;;15.23;5.77;;;;;;;-2.94;62.21;101651.63;125332;1099;104262;-81
2022/03/11 10:30:49;;;;;;;15.93;5.50;;;;;;;-2.93;63.07;101652.53;124809;1099;104213;-80
2022/03/11 10:33:34;;;;;;;13.77;6.10;;;;;;;-2.69;62.11;101651.70;124901;1099;104229;-79
2022/03/11 10:36:34;;;;;;;20.27;8.00;;;;;;;-2.42;62.41;101661.41;124094;1099;104716;-81
2022/03/11 10:39:17;;;;;;;16.33;6.57;;;;;;;-2.26;62.33;101647.60;124291;1099;104434;-80
2022/03/11 10:42:15;;;;;;;14.73;6.30;;;;;;;-2.30;61.45;101648.95;124473;1099;104456;-81
2022/03/11 10:45:25;;;;;;;14.10;6.05;;;;;;;-2.56;62.14;101649.66;125076;1099;104161;-80
2022/03/11 10:48:15;;;;;;;17.17;6.50;;;;;;;-2.63;62.24;101652.35;125194;1099;104367;-80
2022/03/11 10:51:15;;;;;;;14.33;5.47;;;;;;;-2.74;61.03;101645.16;125046;1099;104249;-82
2022/03/11 10:54:14;;;;;;;14.97;5.70;;;;;;;-2.58;60.63;101643.46;126276;1098;104223;-81
2022/03/11 10:57:18;;;;;;;19.20;6.20;;;;;;;-2.29;61.07;101637.94;125358;1099;104246;-81
2022/03/11 11:00:39;;;;;;;17.47;6.17;;;;;;;-2.11;61.70;101645.74;125178;1099;104336;-80
2022/03/11 11:03:44;;;;;;;15.93;5.60;;;;;;;-2.13;61.84;101642.11;124623;1102;104402;-79
2022/03/11 11:06:36;;;;;;;14.93;5.60;;;;;;;-2.15;60.85;101639.38;124878;1099;104322;-80
2022/03/11 11:16:27;;;;;;;16.83;6.23;;;;;;;-2.19;61.29;101632.08;125256;1102;104396;-82
2022/03/11 11:19:08;;;;;;;15.90;6.27;;;;;;;-2.03;61.49;101639.73;123819;1102;104259;-80
2022/03/11 11:21:44;;;;;;;13.67;6.10;;;;;;;-2.18;61.28;101629.67;124960;1102;104587;-79
2022/03/11 11:24:20;;;;;;;16.17;6.13;;;;;;;-2.23;60.55;101638.58;123982;1102;104333;-77
2022/03/11 11:26:58;;;;;;;15.60;6.35;;;;;;;-2.34;61.44;101636.52;124291;1102;104344;-79
2022/03/11 11:29:33;;;;;;;15.67;6.20;;;;;;;-2.25;60.25;101629.77;124607;1102;104315;-81
2022/03/11 11:32:28;;;;;;;13.10;5.37;;;;;;;-2.35;58.80;101635.61;125224;1102;103395;-81
2022/03/11 11:35:36;;;;;;;15.00;5.60;;;;;;;-2.15;59.63;101633.30;124998;1102;104249;-81
2022/03/11 11:38:32;;;;;;;16.40;6.47;;;;;;;-2.05;60.26;101648.95;124998;1102;104284;-82
2022/03/11 11:41:33;;;;;;;18.13;6.13;;;;;;;-2.20;61.79;101679.11;124606;1102;104393;-79
2022/03/11 11:44:33;;;;;;;16.53;6.13;;;;;;;-2.25;61.97;101639.16;125021;1099;104252;-81
2022/03/11 11:47:35;;;;;;;15.30;7.37;;;;;;;-2.18;61.47;101642.53;125208;1099;104264;-82
2022/03/11 11:50:28;;;;;;;15.77;6.67;;;;;;;-2.02;60.63;101636.41;124976;1099;104274;-81
2022/03/11 11:53:23;;;;;;;15.40;6.20;;;;;;;-1.77;61.26;101638.95;125028;1098;104284;-82
2022/03/11 11:55:57;;;;;;;16.80;6.33;;;;;;;-1.57;61.10;101631.61;125215;1099;104268;-82
2022/03/11 11:59:03;;;;;;;15.08;6.58;;;;;;;-1.28;61.56;101628.48;125296;1099;101949;-81
2022/03/11 12:01:52;;;;;;;18.20;6.60;;;;;;;-1.21;60.67;101627.46;125143;1099;104245;-81
2022/03/11 12:04:41;;;;;;;17.03;6.37;;;;;;;-1.48;60.84;101641.91;124523;1099;104229;-80
2022/03/11 12:08:03;;;;;;;;;;;;;;;;;;;;;
2022/03/11 12:11:46;;;;;;;17.10;6.30;;;;;;;-1.93;62.96;101654.45;125190;1099;104213;-82
2022/03/11 12:14:29;;;;;;;18.90;6.47;;;;;;;-1.81;61.59;101632.56;124961;1099;104302;-80
2022/03/11 12:17:36;;;;;;;15.70;6.10;;;;;;;-1.85;60.71;101627.88;124998;1099;104317;-81
2022/03/11 12:27:06;;;;;;;17.15;6.80;;;;;;;-1.57;60.41;101638.39;125303;1099;104092;-78
2022/03/11 12:29:47;;;;;;;15.90;5.53;;;;;;;-1.74;61.13;101641.84;124506;1099;104172;-81
2022/03/11 12:32:40;;;;;;;15.10;5.27;;;;;;;-2.02;60.63;101633.84;124417;1099;104466;-81
2022/03/11 12:35:45;;;;;;;19.53;7.37;;;;;;;-2.05;60.72;101634.42;123981;1099;104267;-81
2022/03/11 12:38:33;;;;;;;16.83;6.60;;;;;;;-2.08;60.15;101634.10;124820;1099;104223;-80
2022/03/11 12:41:26;;;;;;;14.83;6.27;;;;;;;-1.97;59.73;101645.51;124631;1099;109407;-79
2022/03/11 12:47:44;;;;;;;19.07;7.13;;;;;;;-1.76;60.47;101640.75;123883;1099;104414;-80
2022/03/11 12:50:36;;;;;;;17.77;6.90;;;;;;;-1.65;60.27;101640.22;123913;1102;104332;-82
2022/03/11 12:56:25;;;;;;;12.77;5.50;;;;;;;-1.52;57.92;101650.09;124029;1102;104414;-80
2022/03/11 12:59:32;;;;;;;;;;;;;;;;;;;;;
2022/03/11 13:02:28;;;;;;;15.30;5.73;;;;;;;-1.61;58.69;101678.37;123960;1102;119107;-80
2022/03/11 13:05:27;;;;;;;;;;;;;;;;;;;;;
2022/03/11 13:08:15;;;;;;;16.23;5.47;;;;;;;-1.92;58.51;101661.42;123594;1102;104424;-78
2022/03/11 13:11:14;;;;;;;15.53;6.33;;;;;;;-2.14;60.20;101655.70;124267;1102;104354;-80
2022/03/11 13:14:20;;;;;;;16.93;6.67;;;;;;;-2.32;60.08;101652.10;125250;1098;104409;-81